sensor_id;sensor_type;location;lat;lon;timestamp;P1;durP1;ratioP1;P2;durP2;ratioP2
635;SDS011;302;50.206;8.196;2023-11-21T00:00:29;1.77;;;1.50;;
635;SDS011;302;50.206;8.196;2023-11-21T00:02:55;2.10;;;1.55;;
635;SDS011;302;50.206;8.196;2023-11-21T00:05:20;4.45;;;1.60;;
635;SDS011;302;50.206;8.196;2023-11-21T00:07:48;1.67;;;1.05;;
635;SDS011;302;50.206;8.196;2023-11-21T00:10:13;2.45;;;1.30;;
635;SDS011;302;50.206;8.196;2023-11-21T00:12:39;3.60;;;1.50;;
635;SDS011;302;50.206;8.196;2023-11-21T00:15:07;5.00;;;1.30;;
635;SDS011;302;50.206;8.196;2023-11-21T00:17:35;1.75;;;1.40;;
635;SDS011;302;50.206;8.196;2023-11-21T00:20:00;1.90;;;1.60;;
635;SDS011;302;50.206;8.196;2023-11-21T00:22:26;2.20;;;1.83;;
635;SDS011;302;50.206;8.196;2023-11-21T00:24:51;2.30;;;2.10;;
635;SDS011;302;50.206;8.196;2023-11-21T00:27:16;1.80;;;1.70;;
635;SDS011;302;50.206;8.196;2023-11-21T00:29:41;2.33;;;2.05;;
635;SDS011;302;50.206;8.196;2023-11-21T00:32:06;2.00;;;1.70;;
635;SDS011;302;50.206;8.196;2023-11-21T00:34:32;1.80;;;1.70;;
635;SDS011;302;50.206;8.196;2023-11-21T00:36:57;2.43;;;2.17;;
635;SDS011;302;50.206;8.196;2023-11-21T00:39:22;2.87;;;2.47;;
635;SDS011;302;50.206;8.196;2023-11-21T00:41:47;2.60;;;2.40;;
635;SDS011;302;50.206;8.196;2023-11-21T00:44:13;3.07;;;2.50;;
635;SDS011;302;50.206;8.196;2023-11-21T00:46:38;3.45;;;2.83;;
635;SDS011;302;50.206;8.196;2023-11-21T00:49:03;2.60;;;2.37;;
635;SDS011;302;50.206;8.196;2023-11-21T00:51:29;3.07;;;2.77;;
635;SDS011;302;50.206;8.196;2023-11-21T00:53:54;2.97;;;2.70;;
635;SDS011;302;50.206;8.196;2023-11-21T00:56:19;2.60;;;2.40;;
635;SDS011;302;50.206;8.196;2023-11-21T00:58:44;4.35;;;2.63;;
635;SDS011;302;50.206;8.196;2023-11-21T01:01:14;2.72;;;2.05;;
635;SDS011;302;50.206;8.196;2023-11-21T01:03:39;2.63;;;2.43;;
635;SDS011;302;50.206;8.196;2023-11-21T01:06:05;3.87;;;2.47;;
635;SDS011;302;50.206;8.196;2023-11-21T01:08:32;2.30;;;2.10;;
635;SDS011;302;50.206;8.196;2023-11-21T01:10:58;3.10;;;2.70;;
635;SDS011;302;50.206;8.196;2023-11-21T01:13:23;2.67;;;2.47;;
635;SDS011;302;50.206;8.196;2023-11-21T01:15:48;2.10;;;1.90;;
635;SDS011;302;50.206;8.196;2023-11-21T01:18:13;2.40;;;2.20;;
635;SDS011;302;50.206;8.196;2023-11-21T01:20:38;3.75;;;2.40;;
635;SDS011;302;50.206;8.196;2023-11-21T01:23:03;1.52;;;1.42;;
635;SDS011;302;50.206;8.196;2023-11-21T01:25:29;2.07;;;1.87;;
635;SDS011;302;50.206;8.196;2023-11-21T01:27:55;2.00;;;1.90;;
635;SDS011;302;50.206;8.196;2023-11-21T01:30:20;2.80;;;1.63;;
635;SDS011;302;50.206;8.196;2023-11-21T01:32:45;2.23;;;2.03;;
635;SDS011;302;50.206;8.196;2023-11-21T01:35:11;3.10;;;2.10;;
635;SDS011;302;50.206;8.196;2023-11-21T01:37:39;1.60;;;1.50;;
635;SDS011;302;50.206;8.196;2023-11-21T01:40:04;1.80;;;1.30;;
635;SDS011;302;50.206;8.196;2023-11-21T01:42:38;2.25;;;1.33;;
635;SDS011;302;50.206;8.196;2023-11-21T01:45:03;1.37;;;1.07;;
635;SDS011;302;50.206;8.196;2023-11-21T01:47:30;1.13;;;1.02;;
635;SDS011;302;50.206;8.196;2023-11-21T01:49:55;1.47;;;1.37;;
635;SDS011;302;50.206;8.196;2023-11-21T01:52:21;1.60;;;0.83;;
635;SDS011;302;50.206;8.196;2023-11-21T01:54:46;2.97;;;1.20;;
635;SDS011;302;50.206;8.196;2023-11-21T01:57:12;1.60;;;1.38;;
635;SDS011;302;50.206;8.196;2023-11-21T01:59:38;2.23;;;1.80;;
635;SDS011;302;50.206;8.196;2023-11-21T02:02:04;2.00;;;1.80;;
635;SDS011;302;50.206;8.196;2023-11-21T02:04:30;2.20;;;1.80;;
635;SDS011;302;50.206;8.196;2023-11-21T02:06:56;2.72;;;2.22;;
635;SDS011;302;50.206;8.196;2023-11-21T02:09:28;2.90;;;2.43;;
635;SDS011;302;50.206;8.196;2023-11-21T02:11:55;3.38;;;2.55;;
635;SDS011;302;50.206;8.196;2023-11-21T02:14:20;3.47;;;2.57;;
635;SDS011;302;50.206;8.196;2023-11-21T02:16:48;3.22;;;2.92;;
635;SDS011;302;50.206;8.196;2023-11-21T02:19:14;3.72;;;2.83;;
635;SDS011;302;50.206;8.196;2023-11-21T02:21:43;3.45;;;2.88;;
635;SDS011;302;50.206;8.196;2023-11-21T02:24:10;4.57;;;3.58;;
635;SDS011;302;50.206;8.196;2023-11-21T02:26:35;6.00;;;3.75;;
635;SDS011;302;50.206;8.196;2023-11-21T02:29:00;6.43;;;4.50;;
635;SDS011;302;50.206;8.196;2023-11-21T02:31:25;5.40;;;4.20;;
635;SDS011;302;50.206;8.196;2023-11-21T02:33:52;5.43;;;4.30;;
635;SDS011;302;50.206;8.196;2023-11-21T02:36:17;6.97;;;4.60;;
635;SDS011;302;50.206;8.196;2023-11-21T02:38:43;6.20;;;4.53;;
635;SDS011;302;50.206;8.196;2023-11-21T02:41:08;5.57;;;4.50;;
635;SDS011;302;50.206;8.196;2023-11-21T02:43:33;8.07;;;4.00;;
635;SDS011;302;50.206;8.196;2023-11-21T02:45:58;6.90;;;3.60;;
635;SDS011;302;50.206;8.196;2023-11-21T02:48:24;4.68;;;3.22;;
635;SDS011;302;50.206;8.196;2023-11-21T02:50:50;4.78;;;3.35;;
635;SDS011;302;50.206;8.196;2023-11-21T02:53:15;5.83;;;3.60;;
635;SDS011;302;50.206;8.196;2023-11-21T02:55:41;5.68;;;3.78;;
635;SDS011;302;50.206;8.196;2023-11-21T02:58:06;10.20;;;4.43;;
635;SDS011;302;50.206;8.196;2023-11-21T03:00:31;6.45;;;4.43;;
635;SDS011;302;50.206;8.196;2023-11-21T03:02:57;7.80;;;5.33;;
635;SDS011;302;50.206;8.196;2023-11-21T03:05:22;5.87;;;4.67;;
635;SDS011;302;50.206;8.196;2023-11-21T03:07:47;5.73;;;4.50;;
635;SDS011;302;50.206;8.196;2023-11-21T03:10:12;6.70;;;4.60;;
635;SDS011;302;50.206;8.196;2023-11-21T03:12:38;5.60;;;4.03;;
635;SDS011;302;50.206;8.196;2023-11-21T03:15:04;5.43;;;4.60;;
635;SDS011;302;50.206;8.196;2023-11-21T03:17:30;13.85;;;12.60;;
635;SDS011;302;50.206;8.196;2023-11-21T03:19:56;7.85;;;6.75;;
635;SDS011;302;50.206;8.196;2023-11-21T03:22:22;8.52;;;7.53;;
635;SDS011;302;50.206;8.196;2023-11-21T03:24:47;12.88;;;7.93;;
635;SDS011;302;50.206;8.196;2023-11-21T03:27:12;7.53;;;6.03;;
635;SDS011;302;50.206;8.196;2023-11-21T03:29:37;7.25;;;6.50;;
635;SDS011;302;50.206;8.196;2023-11-21T03:32:02;7.38;;;5.47;;
635;SDS011;302;50.206;8.196;2023-11-21T03:34:28;8.70;;;6.63;;
635;SDS011;302;50.206;8.196;2023-11-21T03:36:53;8.98;;;7.53;;
635;SDS011;302;50.206;8.196;2023-11-21T03:39:21;14.20;;;9.47;;
635;SDS011;302;50.206;8.196;2023-11-21T03:41:50;11.07;;;7.60;;
635;SDS011;302;50.206;8.196;2023-11-21T03:44:16;12.82;;;8.48;;
635;SDS011;302;50.206;8.196;2023-11-21T03:46:42;12.70;;;8.20;;
635;SDS011;302;50.206;8.196;2023-11-21T03:49:08;13.27;;;8.90;;
635;SDS011;302;50.206;8.196;2023-11-21T03:51:33;14.87;;;8.07;;
635;SDS011;302;50.206;8.196;2023-11-21T03:53:59;12.00;;;8.77;;
635;SDS011;302;50.206;8.196;2023-11-21T03:56:24;11.30;;;8.52;;
635;SDS011;302;50.206;8.196;2023-11-21T03:58:49;12.55;;;8.15;;
635;SDS011;302;50.206;8.196;2023-11-21T04:01:23;11.53;;;7.77;;
635;SDS011;302;50.206;8.196;2023-11-21T04:03:49;10.25;;;7.53;;
635;SDS011;302;50.206;8.196;2023-11-21T04:06:14;13.63;;;7.80;;
635;SDS011;302;50.206;8.196;2023-11-21T04:08:39;12.33;;;8.23;;
635;SDS011;302;50.206;8.196;2023-11-21T04:11:05;10.93;;;8.02;;
635;SDS011;302;50.206;8.196;2023-11-21T04:13:30;11.07;;;8.30;;
635;SDS011;302;50.206;8.196;2023-11-21T04:15:55;12.10;;;9.10;;
635;SDS011;302;50.206;8.196;2023-11-21T04:18:20;12.40;;;9.07;;
635;SDS011;302;50.206;8.196;2023-11-21T04:20:46;13.50;;;9.80;;
635;SDS011;302;50.206;8.196;2023-11-21T04:23:11;14.77;;;10.10;;
635;SDS011;302;50.206;8.196;2023-11-21T04:25:38;19.45;;;9.68;;
635;SDS011;302;50.206;8.196;2023-11-21T04:28:03;18.17;;;10.00;;
635;SDS011;302;50.206;8.196;2023-11-21T04:30:29;13.03;;;8.50;;
635;SDS011;302;50.206;8.196;2023-11-21T04:32:54;15.97;;;8.60;;
635;SDS011;302;50.206;8.196;2023-11-21T04:35:19;16.00;;;8.40;;
635;SDS011;302;50.206;8.196;2023-11-21T04:37:47;19.00;;;9.02;;
635;SDS011;302;50.206;8.196;2023-11-21T04:40:13;19.20;;;7.35;;
635;SDS011;302;50.206;8.196;2023-11-21T04:42:38;10.13;;;7.40;;
635;SDS011;302;50.206;8.196;2023-11-21T04:45:06;11.55;;;7.65;;
635;SDS011;302;50.206;8.196;2023-11-21T04:47:36;10.27;;;7.07;;
635;SDS011;302;50.206;8.196;2023-11-21T04:50:02;9.67;;;6.97;;
635;SDS011;302;50.206;8.196;2023-11-21T04:52:28;10.10;;;7.10;;
635;SDS011;302;50.206;8.196;2023-11-21T04:54:53;10.25;;;6.93;;
635;SDS011;302;50.206;8.196;2023-11-21T04:57:19;6.45;;;5.38;;
635;SDS011;302;50.206;8.196;2023-11-21T04:59:44;10.50;;;7.73;;
635;SDS011;302;50.206;8.196;2023-11-21T05:02:09;11.40;;;7.37;;
635;SDS011;302;50.206;8.196;2023-11-21T05:04:35;9.53;;;6.60;;
635;SDS011;302;50.206;8.196;2023-11-21T05:07:00;6.90;;;5.83;;
635;SDS011;302;50.206;8.196;2023-11-21T05:09:25;7.40;;;5.93;;
635;SDS011;302;50.206;8.196;2023-11-21T05:11:51;7.30;;;5.83;;
635;SDS011;302;50.206;8.196;2023-11-21T05:14:16;8.83;;;6.30;;
635;SDS011;302;50.206;8.196;2023-11-21T05:16:41;8.10;;;5.90;;
635;SDS011;302;50.206;8.196;2023-11-21T05:19:07;8.10;;;6.70;;
635;SDS011;302;50.206;8.196;2023-11-21T05:21:32;8.30;;;5.85;;
635;SDS011;302;50.206;8.196;2023-11-21T05:23:57;8.20;;;6.40;;
635;SDS011;302;50.206;8.196;2023-11-21T05:26:23;10.10;;;9.00;;
635;SDS011;302;50.206;8.196;2023-11-21T05:28:48;9.40;;;8.07;;
635;SDS011;302;50.206;8.196;2023-11-21T05:31:13;7.63;;;6.38;;
635;SDS011;302;50.206;8.196;2023-11-21T05:33:38;7.60;;;5.67;;
635;SDS011;302;50.206;8.196;2023-11-21T05:36:04;8.53;;;6.60;;
635;SDS011;302;50.206;8.196;2023-11-21T05:38:29;8.07;;;6.20;;
635;SDS011;302;50.206;8.196;2023-11-21T05:40:54;7.93;;;6.93;;
635;SDS011;302;50.206;8.196;2023-11-21T05:43:19;11.23;;;7.23;;
635;SDS011;302;50.206;8.196;2023-11-21T05:45:45;10.05;;;7.25;;
635;SDS011;302;50.206;8.196;2023-11-21T05:48:10;9.53;;;7.10;;
635;SDS011;302;50.206;8.196;2023-11-21T05:50:35;7.70;;;6.70;;
635;SDS011;302;50.206;8.196;2023-11-21T05:53:00;8.88;;;6.82;;
635;SDS011;302;50.206;8.196;2023-11-21T05:55:25;11.20;;;8.40;;
635;SDS011;302;50.206;8.196;2023-11-21T05:57:51;11.73;;;7.67;;
635;SDS011;302;50.206;8.196;2023-11-21T06:00:16;10.00;;;7.88;;
635;SDS011;302;50.206;8.196;2023-11-21T06:02:48;11.10;;;7.97;;
635;SDS011;302;50.206;8.196;2023-11-21T06:05:16;11.77;;;8.80;;
635;SDS011;302;50.206;8.196;2023-11-21T06:07:42;13.82;;;10.15;;
635;SDS011;302;50.206;8.196;2023-11-21T06:10:08;13.83;;;9.90;;
635;SDS011;302;50.206;8.196;2023-11-21T06:12:37;17.13;;;11.05;;
635;SDS011;302;50.206;8.196;2023-11-21T06:15:03;13.70;;;8.10;;
635;SDS011;302;50.206;8.196;2023-11-21T06:17:34;11.60;;;8.02;;
635;SDS011;302;50.206;8.196;2023-11-21T06:20:01;8.90;;;6.97;;
635;SDS011;302;50.206;8.196;2023-11-21T06:22:28;9.90;;;8.23;;
635;SDS011;302;50.206;8.196;2023-11-21T06:24:55;11.60;;;9.73;;
635;SDS011;302;50.206;8.196;2023-11-21T06:27:20;10.98;;;8.05;;
635;SDS011;302;50.206;8.196;2023-11-21T06:29:45;10.83;;;8.87;;
635;SDS011;302;50.206;8.196;2023-11-21T06:32:11;10.68;;;8.77;;
635;SDS011;302;50.206;8.196;2023-11-21T06:34:37;13.73;;;8.80;;
635;SDS011;302;50.206;8.196;2023-11-21T06:37:02;11.87;;;8.20;;
635;SDS011;302;50.206;8.196;2023-11-21T06:39:27;9.83;;;8.17;;
635;SDS011;302;50.206;8.196;2023-11-21T06:41:52;13.30;;;9.47;;
635;SDS011;302;50.206;8.196;2023-11-21T06:44:17;11.17;;;8.80;;
635;SDS011;302;50.206;8.196;2023-11-21T06:46:44;10.77;;;8.50;;
635;SDS011;302;50.206;8.196;2023-11-21T06:49:09;9.80;;;8.80;;
635;SDS011;302;50.206;8.196;2023-11-21T06:51:36;11.95;;;9.15;;
635;SDS011;302;50.206;8.196;2023-11-21T06:54:01;9.93;;;8.60;;
635;SDS011;302;50.206;8.196;2023-11-21T06:56:26;10.70;;;9.55;;
635;SDS011;302;50.206;8.196;2023-11-21T06:58:51;9.97;;;8.47;;
635;SDS011;302;50.206;8.196;2023-11-21T07:01:18;10.23;;;8.88;;
635;SDS011;302;50.206;8.196;2023-11-21T07:03:44;11.85;;;9.20;;
635;SDS011;302;50.206;8.196;2023-11-21T07:06:09;11.70;;;8.77;;
635;SDS011;302;50.206;8.196;2023-11-21T07:08:34;11.50;;;9.20;;
635;SDS011;302;50.206;8.196;2023-11-21T07:10:59;10.87;;;9.40;;
635;SDS011;302;50.206;8.196;2023-11-21T07:13:24;12.55;;;9.85;;
635;SDS011;302;50.206;8.196;2023-11-21T07:15:51;12.13;;;8.60;;
635;SDS011;302;50.206;8.196;2023-11-21T07:18:16;12.10;;;9.17;;
635;SDS011;302;50.206;8.196;2023-11-21T07:20:41;10.57;;;7.88;;
635;SDS011;302;50.206;8.196;2023-11-21T07:23:06;12.02;;;8.63;;
635;SDS011;302;50.206;8.196;2023-11-21T07:25:32;11.67;;;9.60;;
635;SDS011;302;50.206;8.196;2023-11-21T07:27:58;17.17;;;10.23;;
635;SDS011;302;50.206;8.196;2023-11-21T07:30:23;10.23;;;8.00;;
635;SDS011;302;50.206;8.196;2023-11-21T07:32:48;11.00;;;8.82;;
635;SDS011;302;50.206;8.196;2023-11-21T07:35:14;12.00;;;8.50;;
635;SDS011;302;50.206;8.196;2023-11-21T07:37:39;12.30;;;8.53;;
635;SDS011;302;50.206;8.196;2023-11-21T07:40:04;11.90;;;8.80;;
635;SDS011;302;50.206;8.196;2023-11-21T07:42:29;10.50;;;9.07;;
635;SDS011;302;50.206;8.196;2023-11-21T07:44:55;9.93;;;8.13;;
635;SDS011;302;50.206;8.196;2023-11-21T07:47:20;10.53;;;9.43;;
635;SDS011;302;50.206;8.196;2023-11-21T07:49:45;12.07;;;9.70;;
635;SDS011;302;50.206;8.196;2023-11-21T07:52:11;12.65;;;9.00;;
635;SDS011;302;50.206;8.196;2023-11-21T07:54:37;12.43;;;9.20;;
635;SDS011;302;50.206;8.196;2023-11-21T07:57:03;12.30;;;9.40;;
635;SDS011;302;50.206;8.196;2023-11-21T07:59:29;10.30;;;8.20;;
635;SDS011;302;50.206;8.196;2023-11-21T08:01:54;11.40;;;7.60;;
635;SDS011;302;50.206;8.196;2023-11-21T08:04:19;9.40;;;6.65;;
635;SDS011;302;50.206;8.196;2023-11-21T08:06:45;8.55;;;6.95;;
635;SDS011;302;50.206;8.196;2023-11-21T08:09:10;7.47;;;6.67;;
635;SDS011;302;50.206;8.196;2023-11-21T08:11:37;10.23;;;7.20;;
635;SDS011;302;50.206;8.196;2023-11-21T08:14:04;8.80;;;7.70;;
635;SDS011;302;50.206;8.196;2023-11-21T08:16:29;7.65;;;6.82;;
635;SDS011;302;50.206;8.196;2023-11-21T08:18:55;10.32;;;7.25;;
635;SDS011;302;50.206;8.196;2023-11-21T08:21:20;7.20;;;6.50;;
635;SDS011;302;50.206;8.196;2023-11-21T08:23:45;8.93;;;6.33;;
635;SDS011;302;50.206;8.196;2023-11-21T08:26:10;7.27;;;6.57;;
635;SDS011;302;50.206;8.196;2023-11-21T08:28:35;8.30;;;7.50;;
635;SDS011;302;50.206;8.196;2023-11-21T08:31:01;7.28;;;6.57;;
635;SDS011;302;50.206;8.196;2023-11-21T08:33:26;9.73;;;7.30;;
635;SDS011;302;50.206;8.196;2023-11-21T08:35:51;8.03;;;7.20;;
635;SDS011;302;50.206;8.196;2023-11-21T08:38:16;8.97;;;8.03;;
635;SDS011;302;50.206;8.196;2023-11-21T08:40:42;9.55;;;7.30;;
635;SDS011;302;50.206;8.196;2023-11-21T08:43:07;9.73;;;6.85;;
635;SDS011;302;50.206;8.196;2023-11-21T08:45:33;9.00;;;6.43;;
635;SDS011;302;50.206;8.196;2023-11-21T08:47:59;9.02;;;7.10;;
635;SDS011;302;50.206;8.196;2023-11-21T08:50:24;8.83;;;7.60;;
635;SDS011;302;50.206;8.196;2023-11-21T08:52:49;8.38;;;6.80;;
635;SDS011;302;50.206;8.196;2023-11-21T08:55:14;10.30;;;7.13;;
635;SDS011;302;50.206;8.196;2023-11-21T08:57:40;7.97;;;7.17;;
635;SDS011;302;50.206;8.196;2023-11-21T09:00:06;8.48;;;6.82;;
635;SDS011;302;50.206;8.196;2023-11-21T09:02:50;7.55;;;6.05;;
635;SDS011;302;50.206;8.196;2023-11-21T09:05:15;7.30;;;6.60;;
635;SDS011;302;50.206;8.196;2023-11-21T09:07:41;7.50;;;6.80;;
635;SDS011;302;50.206;8.196;2023-11-21T09:10:07;7.90;;;6.43;;
635;SDS011;302;50.206;8.196;2023-11-21T09:12:32;7.87;;;6.07;;
635;SDS011;302;50.206;8.196;2023-11-21T09:14:57;6.67;;;6.00;;
635;SDS011;302;50.206;8.196;2023-11-21T09:17:22;10.33;;;7.37;;
635;SDS011;302;50.206;8.196;2023-11-21T09:19:47;8.23;;;6.40;;
635;SDS011;302;50.206;8.196;2023-11-21T09:22:16;9.32;;;6.30;;
635;SDS011;302;50.206;8.196;2023-11-21T09:24:41;7.03;;;5.60;;
635;SDS011;302;50.206;8.196;2023-11-21T09:27:07;7.00;;;5.20;;
635;SDS011;302;50.206;8.196;2023-11-21T09:29:32;8.47;;;6.00;;
635;SDS011;302;50.206;8.196;2023-11-21T09:31:57;11.18;;;5.38;;
635;SDS011;302;50.206;8.196;2023-11-21T09:34:25;6.80;;;5.10;;
635;SDS011;302;50.206;8.196;2023-11-21T09:36:50;5.57;;;5.05;;
635;SDS011;302;50.206;8.196;2023-11-21T09:39:15;8.93;;;5.50;;
635;SDS011;302;50.206;8.196;2023-11-21T09:41:43;6.70;;;5.83;;
635;SDS011;302;50.206;8.196;2023-11-21T09:44:09;9.18;;;5.13;;
635;SDS011;302;50.206;8.196;2023-11-21T09:46:38;5.90;;;5.30;;
635;SDS011;302;50.206;8.196;2023-11-21T09:49:05;6.00;;;4.13;;
635;SDS011;302;50.206;8.196;2023-11-21T09:51:33;7.93;;;4.95;;
635;SDS011;302;50.206;8.196;2023-11-21T09:54:03;6.65;;;5.85;;
635;SDS011;302;50.206;8.196;2023-11-21T09:56:32;6.43;;;5.45;;
635;SDS011;302;50.206;8.196;2023-11-21T09:58:57;6.00;;;5.30;;
635;SDS011;302;50.206;8.196;2023-11-21T10:01:23;7.47;;;5.40;;
635;SDS011;302;50.206;8.196;2023-11-21T10:03:50;7.45;;;5.45;;
635;SDS011;302;50.206;8.196;2023-11-21T10:06:15;6.43;;;5.07;;
635;SDS011;302;50.206;8.196;2023-11-21T10:08:42;9.77;;;5.38;;
635;SDS011;302;50.206;8.196;2023-11-21T10:11:07;5.30;;;4.77;;
635;SDS011;302;50.206;8.196;2023-11-21T10:13:37;6.57;;;5.30;;
635;SDS011;302;50.206;8.196;2023-11-21T10:16:03;6.00;;;5.30;;
635;SDS011;302;50.206;8.196;2023-11-21T10:18:30;7.88;;;4.63;;
635;SDS011;302;50.206;8.196;2023-11-21T10:20:59;6.80;;;5.70;;
635;SDS011;302;50.206;8.196;2023-11-21T10:23:24;5.57;;;4.47;;
635;SDS011;302;50.206;8.196;2023-11-21T10:25:50;6.13;;;4.77;;
635;SDS011;302;50.206;8.196;2023-11-21T10:28:16;5.43;;;4.93;;
635;SDS011;302;50.206;8.196;2023-11-21T10:30:42;6.77;;;4.23;;
635;SDS011;302;50.206;8.196;2023-11-21T10:33:07;5.40;;;4.90;;
635;SDS011;302;50.206;8.196;2023-11-21T10:38:07;4.80;;;4.30;;
635;SDS011;302;50.206;8.196;2023-11-21T10:40:37;7.00;;;4.10;;
635;SDS011;302;50.206;8.196;2023-11-21T10:43:07;5.07;;;4.05;;
635;SDS011;302;50.206;8.196;2023-11-21T10:45:39;5.47;;;4.22;;
635;SDS011;302;50.206;8.196;2023-11-21T10:48:05;5.35;;;4.85;;
635;SDS011;302;50.206;8.196;2023-11-21T10:50:30;5.63;;;4.75;;
635;SDS011;302;50.206;8.196;2023-11-21T10:52:57;5.43;;;4.85;;
635;SDS011;302;50.206;8.196;2023-11-21T10:55:22;5.90;;;5.35;;
635;SDS011;302;50.206;8.196;2023-11-21T10:57:51;4.90;;;4.40;;
635;SDS011;302;50.206;8.196;2023-11-21T11:00:17;7.82;;;4.53;;
635;SDS011;302;50.206;8.196;2023-11-21T11:02:46;7.60;;;5.07;;
635;SDS011;302;50.206;8.196;2023-11-21T11:05:12;6.95;;;5.50;;
635;SDS011;302;50.206;8.196;2023-11-21T11:07:38;5.10;;;4.57;;
635;SDS011;302;50.206;8.196;2023-11-21T11:10:06;6.05;;;4.40;;
635;SDS011;302;50.206;8.196;2023-11-21T11:12:33;5.95;;;4.78;;
635;SDS011;302;50.206;8.196;2023-11-21T11:14:58;6.80;;;5.40;;
635;SDS011;302;50.206;8.196;2023-11-21T11:17:25;8.18;;;5.45;;
635;SDS011;302;50.206;8.196;2023-11-21T11:19:50;5.70;;;5.13;;
635;SDS011;302;50.206;8.196;2023-11-21T11:27:35;6.18;;;4.90;;
635;SDS011;302;50.206;8.196;2023-11-21T11:30:09;5.95;;;5.30;;
635;SDS011;302;50.206;8.196;2023-11-21T11:35:18;5.95;;;5.00;;
635;SDS011;302;50.206;8.196;2023-11-21T11:37:45;6.32;;;4.80;;
635;SDS011;302;50.206;8.196;2023-11-21T11:40:11;7.18;;;4.97;;
635;SDS011;302;50.206;8.196;2023-11-21T11:42:36;7.73;;;6.60;;
635;SDS011;302;50.206;8.196;2023-11-21T11:45:01;7.27;;;6.57;;
635;SDS011;302;50.206;8.196;2023-11-21T11:47:30;8.65;;;6.80;;
635;SDS011;302;50.206;8.196;2023-11-21T11:50:10;10.15;;;6.90;;
635;SDS011;302;50.206;8.196;2023-11-21T11:52:41;6.20;;;4.97;;
635;SDS011;302;50.206;8.196;2023-11-21T11:55:08;5.97;;;5.47;;
635;SDS011;302;50.206;8.196;2023-11-21T11:57:37;6.35;;;5.75;;
635;SDS011;302;50.206;8.196;2023-11-21T12:00:13;7.10;;;5.45;;
635;SDS011;302;50.206;8.196;2023-11-21T12:02:50;7.03;;;5.35;;
635;SDS011;302;50.206;8.196;2023-11-21T12:05:16;8.18;;;6.28;;
635;SDS011;302;50.206;8.196;2023-11-21T12:07:50;8.52;;;5.15;;
635;SDS011;302;50.206;8.196;2023-11-21T12:10:16;6.13;;;5.53;;
635;SDS011;302;50.206;8.196;2023-11-21T12:12:46;6.78;;;5.53;;
635;SDS011;302;50.206;8.196;2023-11-21T12:15:12;8.63;;;6.15;;
635;SDS011;302;50.206;8.196;2023-11-21T12:17:38;7.90;;;6.20;;
635;SDS011;302;50.206;8.196;2023-11-21T12:20:04;6.97;;;5.87;;
635;SDS011;302;50.206;8.196;2023-11-21T12:22:30;9.00;;;6.50;;
635;SDS011;302;50.206;8.196;2023-11-21T12:24:56;7.93;;;6.70;;
635;SDS011;302;50.206;8.196;2023-11-21T12:27:21;7.73;;;6.97;;
635;SDS011;302;50.206;8.196;2023-11-21T12:29:46;9.27;;;7.63;;
635;SDS011;302;50.206;8.196;2023-11-21T12:32:11;7.10;;;6.40;;
635;SDS011;302;50.206;8.196;2023-11-21T12:34:36;11.43;;;7.67;;
635;SDS011;302;50.206;8.196;2023-11-21T12:37:03;8.73;;;7.07;;
635;SDS011;302;50.206;8.196;2023-11-21T12:39:28;9.60;;;7.80;;
635;SDS011;302;50.206;8.196;2023-11-21T12:41:54;13.10;;;9.30;;
635;SDS011;302;50.206;8.196;2023-11-21T12:44:19;9.87;;;8.67;;
635;SDS011;302;50.206;8.196;2023-11-21T12:46:44;12.93;;;8.80;;
635;SDS011;302;50.206;8.196;2023-11-21T12:49:11;11.80;;;10.40;;
635;SDS011;302;50.206;8.196;2023-11-21T12:51:42;11.05;;;9.27;;
635;SDS011;302;50.206;8.196;2023-11-21T12:54:07;13.60;;;9.47;;
635;SDS011;302;50.206;8.196;2023-11-21T12:56:37;14.10;;;10.50;;
635;SDS011;302;50.206;8.196;2023-11-21T12:59:03;12.25;;;9.73;;
635;SDS011;302;50.206;8.196;2023-11-21T13:01:29;11.30;;;9.43;;
635;SDS011;302;50.206;8.196;2023-11-21T13:03:57;11.10;;;9.93;;
635;SDS011;302;50.206;8.196;2023-11-21T13:06:22;10.77;;;9.63;;
635;SDS011;302;50.206;8.196;2023-11-21T13:08:49;13.25;;;10.10;;
635;SDS011;302;50.206;8.196;2023-11-21T13:11:15;12.37;;;8.30;;
635;SDS011;302;50.206;8.196;2023-11-21T13:13:40;10.60;;;8.50;;
635;SDS011;302;50.206;8.196;2023-11-21T13:16:06;10.52;;;8.73;;
635;SDS011;302;50.206;8.196;2023-11-21T13:18:33;14.00;;;9.07;;
635;SDS011;302;50.206;8.196;2023-11-21T13:20:59;11.50;;;8.57;;
635;SDS011;302;50.206;8.196;2023-11-21T13:23:24;9.43;;;7.70;;
635;SDS011;302;50.206;8.196;2023-11-21T13:25:50;11.63;;;9.63;;
635;SDS011;302;50.206;8.196;2023-11-21T13:28:15;11.33;;;8.43;;
635;SDS011;302;50.206;8.196;2023-11-21T13:30:43;8.20;;;7.40;;
635;SDS011;302;50.206;8.196;2023-11-21T13:33:09;10.88;;;8.45;;
635;SDS011;302;50.206;8.196;2023-11-21T13:35:37;9.48;;;8.07;;
635;SDS011;302;50.206;8.196;2023-11-21T13:38:06;9.90;;;8.25;;
635;SDS011;302;50.206;8.196;2023-11-21T13:40:32;10.80;;;7.53;;
635;SDS011;302;50.206;8.196;2023-11-21T13:42:59;10.55;;;8.40;;
635;SDS011;302;50.206;8.196;2023-11-21T13:45:27;10.20;;;8.03;;
635;SDS011;302;50.206;8.196;2023-11-21T13:47:53;11.15;;;8.40;;
635;SDS011;302;50.206;8.196;2023-11-21T13:50:27;10.15;;;7.82;;
635;SDS011;302;50.206;8.196;2023-11-21T13:52:59;13.70;;;9.13;;
635;SDS011;302;50.206;8.196;2023-11-21T13:55:33;10.50;;;7.88;;
635;SDS011;302;50.206;8.196;2023-11-21T13:58:00;9.52;;;6.55;;
635;SDS011;302;50.206;8.196;2023-11-21T14:00:25;11.20;;;7.50;;
635;SDS011;302;50.206;8.196;2023-11-21T14:03:09;10.73;;;7.95;;
635;SDS011;302;50.206;8.196;2023-11-21T14:05:42;9.35;;;7.28;;
635;SDS011;302;50.206;8.196;2023-11-21T14:08:08;8.87;;;7.60;;
635;SDS011;302;50.206;8.196;2023-11-21T14:10:33;13.30;;;8.88;;
635;SDS011;302;50.206;8.196;2023-11-21T14:13:19;12.55;;;8.52;;
635;SDS011;302;50.206;8.196;2023-11-21T14:15:48;9.50;;;7.60;;
635;SDS011;302;50.206;8.196;2023-11-21T14:18:15;10.15;;;7.50;;
635;SDS011;302;50.206;8.196;2023-11-21T14:20:42;10.65;;;7.50;;
635;SDS011;302;50.206;8.196;2023-11-21T14:23:07;12.60;;;10.07;;
635;SDS011;302;50.206;8.196;2023-11-21T14:25:34;11.50;;;8.37;;
635;SDS011;302;50.206;8.196;2023-11-21T14:27:59;10.70;;;7.78;;
635;SDS011;302;50.206;8.196;2023-11-21T14:30:24;12.13;;;8.60;;
635;SDS011;302;50.206;8.196;2023-11-21T14:32:51;10.90;;;8.65;;
635;SDS011;302;50.206;8.196;2023-11-21T14:35:16;9.80;;;8.00;;
635;SDS011;302;50.206;8.196;2023-11-21T14:37:42;12.57;;;8.47;;
635;SDS011;302;50.206;8.196;2023-11-21T14:40:07;10.87;;;8.10;;
635;SDS011;302;50.206;8.196;2023-11-21T14:42:33;12.52;;;9.00;;
635;SDS011;302;50.206;8.196;2023-11-21T14:44:59;11.07;;;9.10;;
635;SDS011;302;50.206;8.196;2023-11-21T14:47:28;14.93;;;9.93;;
635;SDS011;302;50.206;8.196;2023-11-21T14:49:53;10.65;;;8.18;;
635;SDS011;302;50.206;8.196;2023-11-21T14:52:22;11.60;;;9.10;;
635;SDS011;302;50.206;8.196;2023-11-21T14:55:05;11.60;;;9.70;;
635;SDS011;302;50.206;8.196;2023-11-21T14:57:50;12.98;;;8.65;;
635;SDS011;302;50.206;8.196;2023-11-21T15:00:19;13.60;;;9.20;;
635;SDS011;302;50.206;8.196;2023-11-21T15:03:07;11.70;;;9.38;;
635;SDS011;302;50.206;8.196;2023-11-21T15:05:33;11.05;;;9.13;;
635;SDS011;302;50.206;8.196;2023-11-21T15:08:00;12.68;;;9.05;;
635;SDS011;302;50.206;8.196;2023-11-21T15:10:48;12.05;;;9.45;;
635;SDS011;302;50.206;8.196;2023-11-21T15:13:18;11.93;;;10.65;;
635;SDS011;302;50.206;8.196;2023-11-21T15:15:43;13.40;;;11.37;;
635;SDS011;302;50.206;8.196;2023-11-21T15:18:08;15.20;;;11.50;;
635;SDS011;302;50.206;8.196;2023-11-21T15:20:37;14.80;;;10.65;;
635;SDS011;302;50.206;8.196;2023-11-21T15:23:02;15.20;;;11.90;;
635;SDS011;302;50.206;8.196;2023-11-21T15:25:28;14.80;;;11.02;;
635;SDS011;302;50.206;8.196;2023-11-21T15:27:53;13.45;;;8.40;;
635;SDS011;302;50.206;8.196;2023-11-21T15:30:18;16.25;;;13.27;;
635;SDS011;302;50.206;8.196;2023-11-21T15:32:49;18.27;;;14.40;;
635;SDS011;302;50.206;8.196;2023-11-21T15:35:15;21.80;;;13.57;;
635;SDS011;302;50.206;8.196;2023-11-21T15:37:40;13.70;;;11.27;;
635;SDS011;302;50.206;8.196;2023-11-21T15:40:06;18.53;;;11.63;;
635;SDS011;302;50.206;8.196;2023-11-21T15:42:33;15.40;;;12.55;;